sensor_id;sensor_type;location;lat;lon;timestamp;temperature;humidity
1225;DHT22;602;48.000;7.840;2022-12-29T00:01:47;15.40;99.90
1225;DHT22;602;48.000;7.840;2022-12-29T00:04:15;15.40;99.90
1225;DHT22;602;48.000;7.840;2022-12-29T00:06:42;15.30;99.90
1225;DHT22;602;48.000;7.840;2022-12-29T00:09:11;15.30;99.90
1225;DHT22;602;48.000;7.840;2022-12-29T00:11:38;15.30;99.90
1225;DHT22;602;48.000;7.840;2022-12-29T00:14:05;15.30;99.90
1225;DHT22;602;48.000;7.840;2022-12-29T00:16:50;15.40;99.90
1225;DHT22;602;48.000;7.840;2022-12-29T00:19:18;15.30;99.90
1225;DHT22;602;48.000;7.840;2022-12-29T00:22:03;15.40;99.90
1225;DHT22;602;48.000;7.840;2022-12-29T00:24:48;15.50;99.90
1225;DHT22;602;48.000;7.840;2022-12-29T00:27:32;15.50;99.90
1225;DHT22;602;48.000;7.840;2022-12-29T00:30:18;15.50;99.90
1225;DHT22;602;48.000;7.840;2022-12-29T00:33:09;15.50;99.90
1225;DHT22;602;48.000;7.840;2022-12-29T00:35:57;15.50;99.90
1225;DHT22;602;48.000;7.840;2022-12-29T00:38:25;15.60;99.90
1225;DHT22;602;48.000;7.840;2022-12-29T00:41:10;15.60;99.90
1225;DHT22;602;48.000;7.840;2022-12-29T00:43:54;15.60;99.90
1225;DHT22;602;48.000;7.840;2022-12-29T00:46:36;15.60;99.90
1225;DHT22;602;48.000;7.840;2022-12-29T00:49:04;15.60;99.90
1225;DHT22;602;48.000;7.840;2022-12-29T00:51:51;15.60;99.90
1225;DHT22;602;48.000;7.840;2022-12-29T00:54:19;15.70;99.90
1225;DHT22;602;48.000;7.840;2022-12-29T00:56:46;15.60;99.90
1225;DHT22;602;48.000;7.840;2022-12-29T00:59:14;15.60;99.90
1225;DHT22;602;48.000;7.840;2022-12-29T01:01:41;15.60;99.90
1225;DHT22;602;48.000;7.840;2022-12-29T01:04:09;15.50;99.90
1225;DHT22;602;48.000;7.840;2022-12-29T01:06:37;15.50;99.90
1225;DHT22;602;48.000;7.840;2022-12-29T01:09:07;15.60;99.90
1225;DHT22;602;48.000;7.840;2022-12-29T01:12:01;15.60;99.90
1225;DHT22;602;48.000;7.840;2022-12-29T01:14:28;15.60;99.90
1225;DHT22;602;48.000;7.840;2022-12-29T01:16:56;15.70;99.90
1225;DHT22;602;48.000;7.840;2022-12-29T01:19:23;15.70;99.90
1225;DHT22;602;48.000;7.840;2022-12-29T01:21:50;15.60;99.90
1225;DHT22;602;48.000;7.840;2022-12-29T01:24:20;15.70;99.90
1225;DHT22;602;48.000;7.840;2022-12-29T01:26:47;15.80;99.90
1225;DHT22;602;48.000;7.840;2022-12-29T01:29:15;15.70;99.90
1225;DHT22;602;48.000;7.840;2022-12-29T01:31:42;15.70;99.90
1225;DHT22;602;48.000;7.840;2022-12-29T01:34:09;15.60;99.90
1225;DHT22;602;48.000;7.840;2022-12-29T01:36:36;15.60;99.90
1225;DHT22;602;48.000;7.840;2022-12-29T01:39:03;15.60;99.90
1225;DHT22;602;48.000;7.840;2022-12-29T01:41:31;15.50;99.90
1225;DHT22;602;48.000;7.840;2022-12-29T01:43:59;15.60;99.90
1225;DHT22;602;48.000;7.840;2022-12-29T01:46:30;15.50;99.90
1225;DHT22;602;48.000;7.840;2022-12-29T01:49:02;15.50;99.90
1225;DHT22;602;48.000;7.840;2022-12-29T01:51:31;15.50;99.90
1225;DHT22;602;48.000;7.840;2022-12-29T01:54:02;15.50;99.90
1225;DHT22;602;48.000;7.840;2022-12-29T01:56:33;15.40;99.90
1225;DHT22;602;48.000;7.840;2022-12-29T01:59:02;15.40;99.90
1225;DHT22;602;48.000;7.840;2022-12-29T02:01:30;15.10;99.90
1225;DHT22;602;48.000;7.840;2022-12-29T02:03:57;14.90;99.90
1225;DHT22;602;48.000;7.840;2022-12-29T02:06:28;14.90;99.90
1225;DHT22;602;48.000;7.840;2022-12-29T02:08:56;15.00;99.90
1225;DHT22;602;48.000;7.840;2022-12-29T02:11:24;14.80;99.90
1225;DHT22;602;48.000;7.840;2022-12-29T02:13:53;14.80;99.90
1225;DHT22;602;48.000;7.840;2022-12-29T02:16:46;14.80;99.90
1225;DHT22;602;48.000;7.840;2022-12-29T02:19:43;14.80;99.90
1225;DHT22;602;48.000;7.840;2022-12-29T02:22:19;14.70;99.90
1225;DHT22;602;48.000;7.840;2022-12-29T02:25:15;14.70;99.90
1225;DHT22;602;48.000;7.840;2022-12-29T02:27:51;14.80;99.90
1225;DHT22;602;48.000;7.840;2022-12-29T02:30:46;14.70;99.90
1225;DHT22;602;48.000;7.840;2022-12-29T02:33:28;14.60;99.90
1225;DHT22;602;48.000;7.840;2022-12-29T02:36:06;14.60;99.90
1225;DHT22;602;48.000;7.840;2022-12-29T02:38:55;14.60;99.90
1225;DHT22;602;48.000;7.840;2022-12-29T02:41:29;14.50;99.90
1225;DHT22;602;48.000;7.840;2022-12-29T02:44:03;14.50;99.90
1225;DHT22;602;48.000;7.840;2022-12-29T02:46:36;14.50;99.90
1225;DHT22;602;48.000;7.840;2022-12-29T02:49:09;14.40;99.90
1225;DHT22;602;48.000;7.840;2022-12-29T02:51:43;14.50;99.90
1225;DHT22;602;48.000;7.840;2022-12-29T02:54:14;14.40;99.90
1225;DHT22;602;48.000;7.840;2022-12-29T02:57:00;14.40;99.90
1225;DHT22;602;48.000;7.840;2022-12-29T02:59:27;14.30;99.90
1225;DHT22;602;48.000;7.840;2022-12-29T03:02:17;14.40;99.90
1225;DHT22;602;48.000;7.840;2022-12-29T03:05:13;14.30;99.90
1225;DHT22;602;48.000;7.840;2022-12-29T03:07:49;14.40;99.90
1225;DHT22;602;48.000;7.840;2022-12-29T03:10:30;14.30;99.90
1225;DHT22;602;48.000;7.840;2022-12-29T03:13:07;14.40;99.90
1225;DHT22;602;48.000;7.840;2022-12-29T03:15:59;14.40;99.90
1225;DHT22;602;48.000;7.840;2022-12-29T03:18:44;14.40;99.90
1225;DHT22;602;48.000;7.840;2022-12-29T03:21:16;14.30;99.90
1225;DHT22;602;48.000;7.840;2022-12-29T03:23:46;14.40;99.90
1225;DHT22;602;48.000;7.840;2022-12-29T03:26:17;14.40;99.90
1225;DHT22;602;48.000;7.840;2022-12-29T03:28:50;14.50;99.90
1225;DHT22;602;48.000;7.840;2022-12-29T03:31:19;14.40;99.90
1225;DHT22;602;48.000;7.840;2022-12-29T03:33:48;14.50;99.90
1225;DHT22;602;48.000;7.840;2022-12-29T03:36:22;14.50;99.90
1225;DHT22;602;48.000;7.840;2022-12-29T03:38:55;14.50;99.90
1225;DHT22;602;48.000;7.840;2022-12-29T03:41:30;14.60;99.90
1225;DHT22;602;48.000;7.840;2022-12-29T03:43:57;14.60;99.90
1225;DHT22;602;48.000;7.840;2022-12-29T03:46:24;14.50;99.90
1225;DHT22;602;48.000;7.840;2022-12-29T03:48:53;14.50;99.90
1225;DHT22;602;48.000;7.840;2022-12-29T03:51:20;14.40;99.90
1225;DHT22;602;48.000;7.840;2022-12-29T03:53:47;14.40;99.90
1225;DHT22;602;48.000;7.840;2022-12-29T03:56:13;14.40;99.90
1225;DHT22;602;48.000;7.840;2022-12-29T03:58:40;14.30;99.90
1225;DHT22;602;48.000;7.840;2022-12-29T04:01:07;14.20;99.90
1225;DHT22;602;48.000;7.840;2022-12-29T04:03:34;14.10;99.90
1225;DHT22;602;48.000;7.840;2022-12-29T04:06:03;14.20;99.90
1225;DHT22;602;48.000;7.840;2022-12-29T04:08:30;14.20;99.90
1225;DHT22;602;48.000;7.840;2022-12-29T04:10:57;14.20;99.90
1225;DHT22;602;48.000;7.840;2022-12-29T04:13:24;14.20;99.90
1225;DHT22;602;48.000;7.840;2022-12-29T04:15:51;14.30;99.90
1225;DHT22;602;48.000;7.840;2022-12-29T04:18:18;14.30;99.90
1225;DHT22;602;48.000;7.840;2022-12-29T04:20:45;14.30;99.90
1225;DHT22;602;48.000;7.840;2022-12-29T04:23:30;14.30;99.90
1225;DHT22;602;48.000;7.840;2022-12-29T04:25:58;14.40;99.90
1225;DHT22;602;48.000;7.840;2022-12-29T04:28:25;14.50;99.90
1225;DHT22;602;48.000;7.840;2022-12-29T04:30:52;14.40;99.90
1225;DHT22;602;48.000;7.840;2022-12-29T04:33:20;14.40;99.90
1225;DHT22;602;48.000;7.840;2022-12-29T04:35:47;14.40;99.90
1225;DHT22;602;48.000;7.840;2022-12-29T04:38:14;14.30;99.90
1225;DHT22;602;48.000;7.840;2022-12-29T04:40:43;14.30;99.90
1225;DHT22;602;48.000;7.840;2022-12-29T04:43:10;14.40;99.90
1225;DHT22;602;48.000;7.840;2022-12-29T04:45:38;14.30;99.90
1225;DHT22;602;48.000;7.840;2022-12-29T04:48:05;14.30;99.90
1225;DHT22;602;48.000;7.840;2022-12-29T04:50:32;14.20;99.90
1225;DHT22;602;48.000;7.840;2022-12-29T04:52:59;14.20;99.90
1225;DHT22;602;48.000;7.840;2022-12-29T04:55:26;14.20;99.90
1225;DHT22;602;48.000;7.840;2022-12-29T04:57:55;14.20;99.90
1225;DHT22;602;48.000;7.840;2022-12-29T05:00:22;14.30;99.90
1225;DHT22;602;48.000;7.840;2022-12-29T05:02:49;14.30;99.90
1225;DHT22;602;48.000;7.840;2022-12-29T05:05:16;14.40;99.90
1225;DHT22;602;48.000;7.840;2022-12-29T05:07:43;14.50;99.90
1225;DHT22;602;48.000;7.840;2022-12-29T05:10:11;14.50;99.90
1225;DHT22;602;48.000;7.840;2022-12-29T05:12:38;14.40;99.90
1225;DHT22;602;48.000;7.840;2022-12-29T05:15:08;14.50;99.90
1225;DHT22;602;48.000;7.840;2022-12-29T05:17:38;14.50;99.90
1225;DHT22;602;48.000;7.840;2022-12-29T05:20:06;14.50;99.90
1225;DHT22;602;48.000;7.840;2022-12-29T05:22:34;14.50;99.90
1225;DHT22;602;48.000;7.840;2022-12-29T05:25:01;14.60;99.90
1225;DHT22;602;48.000;7.840;2022-12-29T05:27:28;14.60;99.90
1225;DHT22;602;48.000;7.840;2022-12-29T05:29:55;14.60;99.90
1225;DHT22;602;48.000;7.840;2022-12-29T05:32:23;14.60;99.90
1225;DHT22;602;48.000;7.840;2022-12-29T05:34:50;14.60;99.90
1225;DHT22;602;48.000;7.840;2022-12-29T05:37:19;14.70;99.90
1225;DHT22;602;48.000;7.840;2022-12-29T05:39:46;14.80;99.90
1225;DHT22;602;48.000;7.840;2022-12-29T05:42:13;14.80;99.90
1225;DHT22;602;48.000;7.840;2022-12-29T05:44:40;14.80;99.90
1225;DHT22;602;48.000;7.840;2022-12-29T05:47:07;14.80;99.90
1225;DHT22;602;48.000;7.840;2022-12-29T05:49:35;14.90;99.90
1225;DHT22;602;48.000;7.840;2022-12-29T05:52:03;14.90;99.90
1225;DHT22;602;48.000;7.840;2022-12-29T05:54:30;15.00;99.90
1225;DHT22;602;48.000;7.840;2022-12-29T05:56:57;15.00;99.90
1225;DHT22;602;48.000;7.840;2022-12-29T05:59:23;15.10;99.90
1225;DHT22;602;48.000;7.840;2022-12-29T06:01:52;15.10;99.90
1225;DHT22;602;48.000;7.840;2022-12-29T06:04:19;15.10;99.90
1225;DHT22;602;48.000;7.840;2022-12-29T06:06:47;15.20;99.90
1225;DHT22;602;48.000;7.840;2022-12-29T06:09:14;15.10;99.90
1225;DHT22;602;48.000;7.840;2022-12-29T06:11:41;15.20;99.90
1225;DHT22;602;48.000;7.840;2022-12-29T06:14:08;15.20;99.90
1225;DHT22;602;48.000;7.840;2022-12-29T06:16:35;15.20;99.90
1225;DHT22;602;48.000;7.840;2022-12-29T06:19:02;15.20;99.90
1225;DHT22;602;48.000;7.840;2022-12-29T06:21:29;15.20;99.90
1225;DHT22;602;48.000;7.840;2022-12-29T06:23:58;15.20;99.90
1225;DHT22;602;48.000;7.840;2022-12-29T06:26:25;15.20;99.90
1225;DHT22;602;48.000;7.840;2022-12-29T06:28:52;15.20;99.90
1225;DHT22;602;48.000;7.840;2022-12-29T06:31:18;15.20;99.90
1225;DHT22;602;48.000;7.840;2022-12-29T06:33:45;15.20;99.90
1225;DHT22;602;48.000;7.840;2022-12-29T06:36:12;15.20;99.90
1225;DHT22;602;48.000;7.840;2022-12-29T06:38:39;15.20;99.90
1225;DHT22;602;48.000;7.840;2022-12-29T06:41:08;15.20;99.90
1225;DHT22;602;48.000;7.840;2022-12-29T06:43:35;15.30;99.90
1225;DHT22;602;48.000;7.840;2022-12-29T06:46:03;15.20;99.90
1225;DHT22;602;48.000;7.840;2022-12-29T06:48:30;15.20;99.90
1225;DHT22;602;48.000;7.840;2022-12-29T06:50:57;15.20;99.90
1225;DHT22;602;48.000;7.840;2022-12-29T06:53:24;15.20;99.90
1225;DHT22;602;48.000;7.840;2022-12-29T06:55:51;15.30;99.90
1225;DHT22;602;48.000;7.840;2022-12-29T06:58:20;15.30;99.90
1225;DHT22;602;48.000;7.840;2022-12-29T07:00:47;15.30;99.90
1225;DHT22;602;48.000;7.840;2022-12-29T07:03:14;15.30;99.90
1225;DHT22;602;48.000;7.840;2022-12-29T07:05:41;15.30;99.90
1225;DHT22;602;48.000;7.840;2022-12-29T07:08:08;15.30;99.90
1225;DHT22;602;48.000;7.840;2022-12-29T07:10:35;15.40;99.90
1225;DHT22;602;48.000;7.840;2022-12-29T07:13:02;15.40;99.90
1225;DHT22;602;48.000;7.840;2022-12-29T07:15:31;15.40;99.90
1225;DHT22;602;48.000;7.840;2022-12-29T07:17:57;15.50;99.90
1225;DHT22;602;48.000;7.840;2022-12-29T07:20:24;15.50;99.90
1225;DHT22;602;48.000;7.840;2022-12-29T07:22:52;15.60;99.90
1225;DHT22;602;48.000;7.840;2022-12-29T07:25:18;15.60;99.90
1225;DHT22;602;48.000;7.840;2022-12-29T07:27:45;15.70;99.90
1225;DHT22;602;48.000;7.840;2022-12-29T07:30:13;15.70;99.90
1225;DHT22;602;48.000;7.840;2022-12-29T07:32:41;15.60;99.90
1225;DHT22;602;48.000;7.840;2022-12-29T07:35:08;15.60;99.90
1225;DHT22;602;48.000;7.840;2022-12-29T07:37:35;15.60;99.90
1225;DHT22;602;48.000;7.840;2022-12-29T07:40:03;15.60;99.90
1225;DHT22;602;48.000;7.840;2022-12-29T07:42:31;15.60;99.90
1225;DHT22;602;48.000;7.840;2022-12-29T07:44:58;15.50;99.90
1225;DHT22;602;48.000;7.840;2022-12-29T07:47:25;15.60;99.90
1225;DHT22;602;48.000;7.840;2022-12-29T07:49:54;15.60;99.90
1225;DHT22;602;48.000;7.840;2022-12-29T07:52:21;15.70;99.90
1225;DHT22;602;48.000;7.840;2022-12-29T07:54:47;15.60;99.90
1225;DHT22;602;48.000;7.840;2022-12-29T07:57:14;15.50;99.90
1225;DHT22;602;48.000;7.840;2022-12-29T07:59:41;15.50;99.90
1225;DHT22;602;48.000;7.840;2022-12-29T08:02:09;15.50;99.90
1225;DHT22;602;48.000;7.840;2022-12-29T08:04:36;15.50;99.90
1225;DHT22;602;48.000;7.840;2022-12-29T08:07:05;15.50;99.90
1225;DHT22;602;48.000;7.840;2022-12-29T08:09:32;15.50;99.90
1225;DHT22;602;48.000;7.840;2022-12-29T08:11:59;15.60;99.90
1225;DHT22;602;48.000;7.840;2022-12-29T08:14:25;15.60;99.90
1225;DHT22;602;48.000;7.840;2022-12-29T08:16:52;15.60;99.90
1225;DHT22;602;48.000;7.840;2022-12-29T08:19:19;15.60;99.90
1225;DHT22;602;48.000;7.840;2022-12-29T08:21:46;15.60;99.90
1225;DHT22;602;48.000;7.840;2022-12-29T08:24:14;15.60;99.90
1225;DHT22;602;48.000;7.840;2022-12-29T08:26:41;15.60;99.90
1225;DHT22;602;48.000;7.840;2022-12-29T08:29:08;15.60;99.90
1225;DHT22;602;48.000;7.840;2022-12-29T08:31:35;15.60;99.90
1225;DHT22;602;48.000;7.840;2022-12-29T08:34:02;15.50;99.90
1225;DHT22;602;48.000;7.840;2022-12-29T08:36:29;15.50;99.90
1225;DHT22;602;48.000;7.840;2022-12-29T08:38:56;15.40;99.90
1225;DHT22;602;48.000;7.840;2022-12-29T08:41:25;15.40;99.90
1225;DHT22;602;48.000;7.840;2022-12-29T08:43:51;15.50;99.90
1225;DHT22;602;48.000;7.840;2022-12-29T08:46:18;15.60;99.90
1225;DHT22;602;48.000;7.840;2022-12-29T08:48:45;15.50;99.90
1225;DHT22;602;48.000;7.840;2022-12-29T08:51:12;15.50;99.90
1225;DHT22;602;48.000;7.840;2022-12-29T08:53:39;15.60;99.90
1225;DHT22;602;48.000;7.840;2022-12-29T08:56:08;15.60;99.90
1225;DHT22;602;48.000;7.840;2022-12-29T08:58:36;15.60;99.90
1225;DHT22;602;48.000;7.840;2022-12-29T09:01:03;15.50;99.90
1225;DHT22;602;48.000;7.840;2022-12-29T09:03:30;15.50;99.90
1225;DHT22;602;48.000;7.840;2022-12-29T09:05:57;15.50;99.90
1225;DHT22;602;48.000;7.840;2022-12-29T09:08:24;15.50;99.90
1225;DHT22;602;48.000;7.840;2022-12-29T09:10:51;15.50;99.90
1225;DHT22;602;48.000;7.840;2022-12-29T09:13:18;15.40;99.90
1225;DHT22;602;48.000;7.840;2022-12-29T09:15:46;15.40;99.90
1225;DHT22;602;48.000;7.840;2022-12-29T09:18:13;15.50;99.90
1225;DHT22;602;48.000;7.840;2022-12-29T09:20:40;15.50;99.90
1225;DHT22;602;48.000;7.840;2022-12-29T09:23:07;15.40;99.90
1225;DHT22;602;48.000;7.840;2022-12-29T09:25:34;15.40;99.90
1225;DHT22;602;48.000;7.840;2022-12-29T09:28:01;15.40;99.90
1225;DHT22;602;48.000;7.840;2022-12-29T09:30:33;15.30;99.90
1225;DHT22;602;48.000;7.840;2022-12-29T09:33:01;15.30;99.90
1225;DHT22;602;48.000;7.840;2022-12-29T09:35:28;15.20;99.90
1225;DHT22;602;48.000;7.840;2022-12-29T09:37:55;15.20;99.90
1225;DHT22;602;48.000;7.840;2022-12-29T09:40:27;15.20;99.90
1225;DHT22;602;48.000;7.840;2022-12-29T09:43:17;15.20;99.90
1225;DHT22;602;48.000;7.840;2022-12-29T09:45:55;15.30;99.90
1225;DHT22;602;48.000;7.840;2022-12-29T09:48:30;15.10;99.90
1225;DHT22;602;48.000;7.840;2022-12-29T09:51:00;15.20;99.90
1225;DHT22;602;48.000;7.840;2022-12-29T09:53:31;15.10;99.90
1225;DHT22;602;48.000;7.840;2022-12-29T09:56:04;15.00;99.90
1225;DHT22;602;48.000;7.840;2022-12-29T09:58:36;15.00;99.90
1225;DHT22;602;48.000;7.840;2022-12-29T10:01:05;15.00;99.90
1225;DHT22;602;48.000;7.840;2022-12-29T10:03:45;15.00;99.90
1225;DHT22;602;48.000;7.840;2022-12-29T10:06:17;14.90;99.90
1225;DHT22;602;48.000;7.840;2022-12-29T10:08:51;14.80;99.90
1225;DHT22;602;48.000;7.840;2022-12-29T10:11:29;14.90;99.90
1225;DHT22;602;48.000;7.840;2022-12-29T10:14:17;14.90;99.90
1225;DHT22;602;48.000;7.840;2022-12-29T10:16:53;15.00;99.90
1225;DHT22;602;48.000;7.840;2022-12-29T10:19:40;15.00;99.90
1225;DHT22;602;48.000;7.840;2022-12-29T10:22:20;15.10;99.90
1225;DHT22;602;48.000;7.840;2022-12-29T10:24:51;15.00;99.90
1225;DHT22;602;48.000;7.840;2022-12-29T10:27:19;15.10;99.90
1225;DHT22;602;48.000;7.840;2022-12-29T10:29:50;15.00;99.90
1225;DHT22;602;48.000;7.840;2022-12-29T10:32:26;15.00;99.90
1225;DHT22;602;48.000;7.840;2022-12-29T10:34:58;15.00;99.90
1225;DHT22;602;48.000;7.840;2022-12-29T10:37:31;15.00;99.90
1225;DHT22;602;48.000;7.840;2022-12-29T10:39:59;14.90;99.90
1225;DHT22;602;48.000;7.840;2022-12-29T10:42:34;14.90;99.90
1225;DHT22;602;48.000;7.840;2022-12-29T10:45:04;14.80;99.90
1225;DHT22;602;48.000;7.840;2022-12-29T10:47:36;14.80;99.90
1225;DHT22;602;48.000;7.840;2022-12-29T10:50:06;14.80;99.90
1225;DHT22;602;48.000;7.840;2022-12-29T10:52:35;14.60;99.90
1225;DHT22;602;48.000;7.840;2022-12-29T10:55:08;14.70;99.90
1225;DHT22;602;48.000;7.840;2022-12-29T10:57:41;14.70;99.90
1225;DHT22;602;48.000;7.840;2022-12-29T11:00:12;14.60;99.90
1225;DHT22;602;48.000;7.840;2022-12-29T11:05:38;14.50;99.90
1225;DHT22;602;48.000;7.840;2022-12-29T11:08:11;14.60;99.90
1225;DHT22;602;48.000;7.840;2022-12-29T11:10:40;14.60;99.90
1225;DHT22;602;48.000;7.840;2022-12-29T11:13:13;14.70;99.90
1225;DHT22;602;48.000;7.840;2022-12-29T11:15:42;14.80;99.90
1225;DHT22;602;48.000;7.840;2022-12-29T11:18:22;14.80;99.90
1225;DHT22;602;48.000;7.840;2022-12-29T11:20:52;14.80;99.90
1225;DHT22;602;48.000;7.840;2022-12-29T11:23:29;14.80;99.90
1225;DHT22;602;48.000;7.840;2022-12-29T11:26:11;14.90;99.90
1225;DHT22;602;48.000;7.840;2022-12-29T11:28:40;14.80;99.90
1225;DHT22;602;48.000;7.840;2022-12-29T11:31:08;14.80;99.90
1225;DHT22;602;48.000;7.840;2022-12-29T11:33:37;14.70;99.90
1225;DHT22;602;48.000;7.840;2022-12-29T11:36:07;14.60;99.90
1225;DHT22;602;48.000;7.840;2022-12-29T11:38:37;14.70;99.90
1225;DHT22;602;48.000;7.840;2022-12-29T11:41:06;14.60;99.90
1225;DHT22;602;48.000;7.840;2022-12-29T11:43:36;14.70;99.90
1225;DHT22;602;48.000;7.840;2022-12-29T11:46:04;14.60;99.90
1225;DHT22;602;48.000;7.840;2022-12-29T11:48:37;14.70;99.90
1225;DHT22;602;48.000;7.840;2022-12-29T11:51:07;14.70;99.90
1225;DHT22;602;48.000;7.840;2022-12-29T11:53:39;14.80;99.90
1225;DHT22;602;48.000;7.840;2022-12-29T11:56:09;14.80;99.90
1225;DHT22;602;48.000;7.840;2022-12-29T11:58:38;14.80;99.90
1225;DHT22;602;48.000;7.840;2022-12-29T12:01:07;14.90;99.90
1225;DHT22;602;48.000;7.840;2022-12-29T12:03:40;15.00;99.90
1225;DHT22;602;48.000;7.840;2022-12-29T12:06:14;15.00;99.90
1225;DHT22;602;48.000;7.840;2022-12-29T12:08:46;15.00;99.90
1225;DHT22;602;48.000;7.840;2022-12-29T12:11:17;15.10;99.90
1225;DHT22;602;48.000;7.840;2022-12-29T12:13:54;15.10;99.90
1225;DHT22;602;48.000;7.840;2022-12-29T12:16:27;15.00;99.90
1225;DHT22;602;48.000;7.840;2022-12-29T12:18:57;14.90;99.90
1225;DHT22;602;48.000;7.840;2022-12-29T12:21:32;15.00;99.90
1225;DHT22;602;48.000;7.840;2022-12-29T12:24:15;15.10;99.90
1225;DHT22;602;48.000;7.840;2022-12-29T12:26:55;15.10;99.90
1225;DHT22;602;48.000;7.840;2022-12-29T12:29:25;15.00;99.90
1225;DHT22;602;48.000;7.840;2022-12-29T12:31:57;14.90;99.90
1225;DHT22;602;48.000;7.840;2022-12-29T12:34:29;14.80;99.90
1225;DHT22;602;48.000;7.840;2022-12-29T12:40:18;14.80;99.90
1225;DHT22;602;48.000;7.840;2022-12-29T12:42:56;14.80;99.90
1225;DHT22;602;48.000;7.840;2022-12-29T12:45:37;14.80;99.90
1225;DHT22;602;48.000;7.840;2022-12-29T12:48:20;14.80;99.90
1225;DHT22;602;48.000;7.840;2022-12-29T12:50:57;14.80;99.90
1225;DHT22;602;48.000;7.840;2022-12-29T12:53:43;14.90;99.90
1225;DHT22;602;48.000;7.840;2022-12-29T12:56:32;15.10;99.90
1225;DHT22;602;48.000;7.840;2022-12-29T12:59:06;15.10;99.90
1225;DHT22;602;48.000;7.840;2022-12-29T13:01:44;15.10;99.90
1225;DHT22;602;48.000;7.840;2022-12-29T13:04:43;15.20;99.90
1225;DHT22;602;48.000;7.840;2022-12-29T13:07:22;15.20;99.90
1225;DHT22;602;48.000;7.840;2022-12-29T13:10:22;15.20;99.90
1225;DHT22;602;48.000;7.840;2022-12-29T13:12:57;15.30;99.90
1225;DHT22;602;48.000;7.840;2022-12-29T13:15:40;15.30;99.90
1225;DHT22;602;48.000;7.840;2022-12-29T13:18:17;15.40;99.90
1225;DHT22;602;48.000;7.840;2022-12-29T13:20:49;15.40;99.90
1225;DHT22;602;48.000;7.840;2022-12-29T13:23:25;15.30;99.90
1225;DHT22;602;48.000;7.840;2022-12-29T13:26:02;15.20;99.90
1225;DHT22;602;48.000;7.840;2022-12-29T13:28:37;15.20;99.90
1225;DHT22;602;48.000;7.840;2022-12-29T13:31:15;15.20;99.90
1225;DHT22;602;48.000;7.840;2022-12-29T13:33:50;15.10;99.90
1225;DHT22;602;48.000;7.840;2022-12-29T13:36:23;15.10;99.90
1225;DHT22;602;48.000;7.840;2022-12-29T13:38:58;15.10;99.90
1225;DHT22;602;48.000;7.840;2022-12-29T13:41:32;15.10;99.90
1225;DHT22;602;48.000;7.840;2022-12-29T13:44:01;15.00;99.90
1225;DHT22;602;48.000;7.840;2022-12-29T13:46:33;14.90;99.90
1225;DHT22;602;48.000;7.840;2022-12-29T13:49:04;14.90;99.90
1225;DHT22;602;48.000;7.840;2022-12-29T13:51:32;14.80;99.90
1225;DHT22;602;48.000;7.840;2022-12-29T13:54:12;14.80;99.90
1225;DHT22;602;48.000;7.840;2022-12-29T13:56:49;14.80;99.90
1225;DHT22;602;48.000;7.840;2022-12-29T13:59:23;14.80;99.90
1225;DHT22;602;48.000;7.840;2022-12-29T14:01:56;14.80;99.90
1225;DHT22;602;48.000;7.840;2022-12-29T14:04:27;14.80;99.90
1225;DHT22;602;48.000;7.840;2022-12-29T14:07:02;14.70;99.90
1225;DHT22;602;48.000;7.840;2022-12-29T14:09:40;14.60;99.90
1225;DHT22;602;48.000;7.840;2022-12-29T14:12:25;14.60;99.90
1225;DHT22;602;48.000;7.840;2022-12-29T14:14:57;14.60;99.90
1225;DHT22;602;48.000;7.840;2022-12-29T14:17:28;14.60;99.90
1225;DHT22;602;48.000;7.840;2022-12-29T14:19:55;14.60;99.90
1225;DHT22;602;48.000;7.840;2022-12-29T14:22:26;14.60;99.90
1225;DHT22;602;48.000;7.840;2022-12-29T14:24:53;14.70;99.90
1225;DHT22;602;48.000;7.840;2022-12-29T14:27:53;14.70;99.90
1225;DHT22;602;48.000;7.840;2022-12-29T14:33:27;14.70;99.90
1225;DHT22;602;48.000;7.840;2022-12-29T14:35:55;14.60;99.90
1225;DHT22;602;48.000;7.840;2022-12-29T14:38:24;14.60;99.90
1225;DHT22;602;48.000;7.840;2022-12-29T14:40:52;14.70;99.90
1225;DHT22;602;48.000;7.840;2022-12-29T14:43:26;14.70;99.90
1225;DHT22;602;48.000;7.840;2022-12-29T14:45:59;14.70;99.90
1225;DHT22;602;48.000;7.840;2022-12-29T14:48:34;14.60;99.90
1225;DHT22;602;48.000;7.840;2022-12-29T14:51:06;14.70;99.90
1225;DHT22;602;48.000;7.840;2022-12-29T14:53:45;14.60;99.90
1225;DHT22;602;48.000;7.840;2022-12-29T14:56:13;14.60;99.90
1225;DHT22;602;48.000;7.840;2022-12-29T14:58:48;14.60;99.90
1225;DHT22;602;48.000;7.840;2022-12-29T15:01:20;14.60;99.90
1225;DHT22;602;48.000;7.840;2022-12-29T15:03:50;14.60;99.90
1225;DHT22;602;48.000;7.840;2022-12-29T15:06:18;14.60;99.90
1225;DHT22;602;48.000;7.840;2022-12-29T15:08:50;14.60;99.90
1225;DHT22;602;48.000;7.840;2022-12-29T15:11:20;14.50;99.90
1225;DHT22;602;48.000;7.840;2022-12-29T15:13:49;14.50;99.90
1225;DHT22;602;48.000;7.840;2022-12-29T15:16:24;14.50;99.90
1225;DHT22;602;48.000;7.840;2022-12-29T15:18:51;14.50;99.90
1225;DHT22;602;48.000;7.840;2022-12-29T15:21:22;14.40;99.90
1225;DHT22;602;48.000;7.840;2022-12-29T15:23:50;14.40;99.90
1225;DHT22;602;48.000;7.840;2022-12-29T15:26:17;14.30;99.90
1225;DHT22;602;48.000;7.840;2022-12-29T15:28:50;14.30;99.90
1225;DHT22;602;48.000;7.840;2022-12-29T15:31:19;14.30;99.90
1225;DHT22;602;48.000;7.840;2022-12-29T15:33:48;14.30;99.90
1225;DHT22;602;48.000;7.840;2022-12-29T15:36:19;14.20;99.90
1225;DHT22;602;48.000;7.840;2022-12-29T15:38:48;14.10;99.90
1225;DHT22;602;48.000;7.840;2022-12-29T15:41:26;14.10;99.90
1225;DHT22;602;48.000;7.840;2022-12-29T15:44:09;14.10;99.90
1225;DHT22;602;48.000;7.840;2022-12-29T15:46:38;14.10;99.90
1225;DHT22;602;48.000;7.840;2022-12-29T15:49:07;14.00;99.90
1225;DHT22;602;48.000;7.840;2022-12-29T15:51:37;14.00;99.90
1225;DHT22;602;48.000;7.840;2022-12-29T15:54:04;14.00;99.90
1225;DHT22;602;48.000;7.840;2022-12-29T15:56:33;14.00;99.90
1225;DHT22;602;48.000;7.840;2022-12-29T15:59:00;13.90;99.90
1225;DHT22;602;48.000;7.840;2022-12-29T16:01:30;14.00;99.90
1225;DHT22;602;48.000;7.840;2022-12-29T16:03:58;14.00;99.90
1225;DHT22;602;48.000;7.840;2022-12-29T16:06:31;14.00;99.90
1225;DHT22;602;48.000;7.840;2022-12-29T16:09:00;14.00;99.90
1225;DHT22;602;48.000;7.840;2022-12-29T16:11:33;13.90;99.90
1225;DHT22;602;48.000;7.840;2022-12-29T16:14:01;13.90;99.90
1225;DHT22;602;48.000;7.840;2022-12-29T16:16:32;13.90;99.90
1225;DHT22;602;48.000;7.840;2022-12-29T16:19:02;13.90;99.90
1225;DHT22;602;48.000;7.840;2022-12-29T16:21:33;13.90;99.90
1225;DHT22;602;48.000;7.840;2022-12-29T16:24:02;13.80;99.90
1225;DHT22;602;48.000;7.840;2022-12-29T16:26:32;13.80;99.90
1225;DHT22;602;48.000;7.840;2022-12-29T16:29:00;13.90;99.90
1225;DHT22;602;48.000;7.840;2022-12-29T16:31:33;13.80;99.90
1225;DHT22;602;48.000;7.840;2022-12-29T16:34:11;13.90;99.90
1225;DHT22;602;48.000;7.840;2022-12-29T16:36:54;13.90;99.90
1225;DHT22;602;48.000;7.840;2022-12-29T16:39:27;13.90;99.90
1225;DHT22;602;48.000;7.840;2022-12-29T16:41:55;14.00;99.90
1225;DHT22;602;48.000;7.840;2022-12-29T16:44:23;14.00;99.90
1225;DHT22;602;48.000;7.840;2022-12-29T16:47:18;13.90;99.90
1225;DHT22;602;48.000;7.840;2022-12-29T16:49:50;13.90;99.90
1225;DHT22;602;48.000;7.840;2022-12-29T16:52:21;13.80;99.90
1225;DHT22;602;48.000;7.840;2022-12-29T16:54:51;13.80;99.90